createdAt,value
2018-07-22T00:00:29.887Z,149343.77
2018-07-22T00:03:01.886Z,149298.78
2018-07-22T00:05:33.044Z,149293.80
2018-07-22T00:08:04.547Z,149285.02
2018-07-22T00:10:36.142Z,149276.28
2018-07-22T00:13:07.461Z,149290.00
2018-07-22T00:15:38.748Z,149285.02
2018-07-22T00:18:09.944Z,149318.78
2018-07-22T00:20:41.611Z,149310.05
2018-07-22T00:23:13.612Z,149307.50
2018-07-22T00:25:44.527Z,149300.03
2018-07-22T00:28:15.997Z,149283.77
2018-07-22T00:30:47.380Z,149305.02
2018-07-22T00:33:19.244Z,149277.53
2018-07-22T00:35:52.356Z,149272.55
2018-07-22T00:38:24.102Z,149280.03
2018-07-22T00:40:55.065Z,149286.25
2018-07-22T00:43:26.414Z,149303.77
2018-07-22T00:45:57.531Z,149346.27
2018-07-22T00:48:28.840Z,149338.73
2018-07-22T00:50:59.754Z,149331.25
2018-07-22T00:53:31.581Z,149346.27
2018-07-22T00:56:02.537Z,149336.23
2018-07-22T00:58:33.548Z,149332.50
2018-07-22T01:01:04.618Z,149330.00
2018-07-22T01:03:35.797Z,149297.53
2018-07-22T01:06:07.115Z,149271.30
2018-07-22T01:08:38.285Z,149262.56
2018-07-22T01:11:09.831Z,149275.05
2018-07-22T01:13:43.249Z,149282.52
2018-07-22T01:16:15.909Z,149283.77
2018-07-22T01:18:47.010Z,149287.50
2018-07-22T01:21:18.112Z,149297.53
2018-07-22T01:23:49.388Z,149316.28
2018-07-22T01:26:20.434Z,149345.02
2018-07-22T01:28:56.819Z,149350.00
2018-07-22T01:31:28.109Z,149316.28
2018-07-22T01:33:59.237Z,149265.06
2018-07-22T01:36:30.043Z,149277.53
2018-07-22T01:39:01.368Z,149283.77
2018-07-22T01:41:33.433Z,149288.75
2018-07-22T01:44:04.422Z,149283.77
2018-07-22T01:46:35.372Z,149231.34
2018-07-22T01:49:06.434Z,149228.86
2018-07-22T01:51:37.248Z,149218.88
2018-07-22T01:54:08.789Z,149201.44
2018-07-22T01:56:40.110Z,149208.91
2018-07-22T01:59:11.927Z,149213.89
2018-07-22T02:01:44.202Z,149186.42
2018-07-22T02:04:16.796Z,149180.19
2018-07-22T02:06:47.882Z,149152.77
2018-07-22T02:09:18.900Z,149142.75
2018-07-22T02:11:50.096Z,149134.02
2018-07-22T02:14:21.140Z,149120.31
2018-07-22T02:16:52.306Z,149109.05
2018-07-22T02:19:23.385Z,149101.52
2018-07-22T02:21:54.840Z,149062.88
2018-07-22T02:24:28.344Z,149081.58
2018-07-22T02:26:59.400Z,149032.94
2018-07-22T02:29:30.529Z,149095.28
2018-07-22T02:32:02.611Z,149101.52
2018-07-22T02:34:34.907Z,149124.05
2018-07-22T02:37:05.959Z,149134.02
2018-07-22T02:39:37.533Z,149160.25
2018-07-22T02:42:09.409Z,149185.17
2018-07-22T02:44:41.523Z,149168.97
2018-07-22T02:47:12.894Z,149185.17
2018-07-22T02:49:44.222Z,149177.69
2018-07-22T02:52:15.267Z,149170.22
2018-07-22T02:54:46.183Z,149162.73
2018-07-22T02:57:17.213Z,149155.25
2018-07-22T02:59:48.034Z,149167.72
2018-07-22T03:02:19.190Z,149183.94
2018-07-22T03:04:51.067Z,149192.66
2018-07-22T03:07:23.082Z,149205.17
2018-07-22T03:09:55.435Z,149232.59
2018-07-22T03:12:26.453Z,149296.28
2018-07-22T03:14:58.801Z,149407.42
2018-07-22T03:17:29.961Z,149528.59
2018-07-22T03:20:01.072Z,149663.52
2018-07-22T03:22:32.178Z,149791.06
2018-07-22T03:25:03.206Z,149946.11
2018-07-22T03:27:34.044Z,150071.25
2018-07-22T03:30:05.248Z,150191.38
2018-07-22T03:32:36.220Z,150319.03
2018-07-22T03:35:08.566Z,150499.41
2018-07-22T03:37:40.788Z,150628.42
2018-07-22T03:40:11.837Z,150791.33
2018-07-22T03:42:42.851Z,150930.50
2018-07-22T03:45:13.936Z,151207.75
2018-07-22T03:47:45.001Z,151423.63
2018-07-22T03:50:15.896Z,151568.03
2018-07-22T03:52:46.921Z,151799.22
2018-07-22T03:55:18.105Z,152015.39
2018-07-22T03:57:49.151Z,152192.75
2018-07-22T04:00:20.677Z,152231.69
2018-07-22T04:02:51.453Z,152378.86
2018-07-22T04:05:23.290Z,152523.62
2018-07-22T04:07:54.608Z,152587.83
2018-07-22T04:10:26.783Z,152677.23
2018-07-22T04:12:57.740Z,152742.67
2018-07-22T04:15:30.814Z,152856.00
2018-07-22T04:18:02.154Z,153172.30
2018-07-22T04:20:33.165Z,153382.81
2018-07-22T04:23:04.304Z,153405.53
2018-07-22T04:25:36.435Z,153414.34
2018-07-22T04:28:07.195Z,153448.44
2018-07-22T04:30:38.394Z,153421.91
2018-07-22T04:33:10.803Z,153075.25
2018-07-22T04:35:43.826Z,153314.72
2018-07-22T04:38:15.199Z,153549.34
2018-07-22T04:40:46.525Z,153752.45
2018-07-22T04:43:17.888Z,153968.31
2018-07-22T04:45:50.094Z,154148.80
2018-07-22T04:48:21.250Z,154289.02
2018-07-22T04:50:52.351Z,154299.16
2018-07-22T04:53:23.878Z,154301.69
2018-07-22T04:55:55.763Z,154433.02
2018-07-22T04:58:26.733Z,154419.14
2018-07-22T05:00:58.334Z,154609.97
2018-07-22T05:03:30.917Z,154460.83
2018-07-22T05:06:03.311Z,154639.05
2018-07-22T05:08:34.428Z,154813.47
2018-07-22T05:11:05.696Z,154852.66
2018-07-22T05:13:38.057Z,154951.34
2018-07-22T05:16:10.005Z,154840.03
2018-07-22T05:18:41.053Z,154938.67
2018-07-22T05:21:12.324Z,154881.80
2018-07-22T05:23:43.996Z,154942.45
2018-07-22T05:26:16.028Z,154884.33
2018-07-22T05:28:47.189Z,155062.63
2018-07-22T05:31:18.356Z,155218.23
2018-07-22T05:33:49.532Z,155304.28
2018-07-22T05:36:23.452Z,155452.38
2018-07-22T05:38:56.015Z,155461.22
2018-07-22T05:41:29.521Z,155280.23
2018-07-22T05:44:00.693Z,155495.41
2018-07-22T05:46:31.948Z,155530.84
2018-07-22T05:49:03.442Z,155553.64
2018-07-22T05:51:35.109Z,155456.17
2018-07-22T05:54:06.285Z,155280.23
2018-07-22T05:56:38.800Z,155286.55
2018-07-22T05:59:10.944Z,155051.25
2018-07-22T06:01:42.202Z,155003.17
2018-07-22T06:06:51.304Z,155473.86
2018-07-22T06:09:22.402Z,155086.67
2018-07-22T06:11:53.730Z,155128.41
2018-07-22T06:14:25.277Z,155519.45
2018-07-22T06:16:57.869Z,155401.73
2018-07-22T06:19:28.940Z,155052.52
2018-07-22T06:22:00.136Z,154769.25
2018-07-22T06:24:31.648Z,154727.53
2018-07-22T06:27:03.858Z,154621.33
2018-07-22T06:29:35.118Z,154717.39
2018-07-22T06:32:07.840Z,154900.73
2018-07-22T06:34:38.878Z,154626.38
2018-07-22T06:37:10.002Z,154496.25
2018-07-22T06:39:41.341Z,154544.25
2018-07-22T06:44:39.514Z,154751.53
2018-07-22T06:47:10.590Z,154716.12
2018-07-22T06:49:42.035Z,155201.77
2018-07-22T06:52:13.383Z,155038.58
2018-07-22T06:54:44.515Z,155176.50
2018-07-22T06:57:15.616Z,154798.33
2018-07-22T06:59:47.483Z,155227.08
2018-07-22T07:02:19.060Z,155272.66
2018-07-22T07:04:50.349Z,155058.84
2018-07-22T07:07:21.276Z,155391.58
2018-07-22T07:09:52.362Z,154953.88
2018-07-22T07:12:23.357Z,155014.53
2018-07-22T07:14:54.881Z,154822.31
2018-07-22T07:17:26.066Z,154934.87
2018-07-22T07:19:57.175Z,155271.39
2018-07-22T07:22:29.396Z,155098.03
2018-07-22T07:25:00.403Z,154953.88
2018-07-22T07:27:32.749Z,155067.72
2018-07-22T07:30:05.580Z,155072.78
2018-07-22T07:32:36.576Z,155058.84
2018-07-22T07:35:09.631Z,154682.05
2018-07-22T07:37:41.071Z,154617.53
2018-07-22T07:40:12.105Z,154132.41
2018-07-22T07:42:43.215Z,154359.75
2018-07-22T07:45:14.299Z,154603.66
2018-07-22T07:47:45.456Z,154172.84
2018-07-22T07:50:16.681Z,154172.84
2018-07-22T07:52:48.146Z,154080.66
2018-07-22T07:55:19.440Z,153650.25
2018-07-22T07:57:50.682Z,153700.70
2018-07-22T08:00:21.940Z,153784.00
2018-07-22T08:02:55.065Z,154036.44
2018-07-22T08:05:27.326Z,154137.44
2018-07-22T08:07:58.701Z,153579.63
2018-07-22T08:10:29.683Z,152942.94
2018-07-22T08:13:02.301Z,152353.73
2018-07-22T08:15:34.080Z,152114.73
2018-07-22T08:18:07.207Z,151792.94
2018-07-22T08:20:38.268Z,151637.17
2018-07-22T08:23:09.383Z,151568.03
2018-07-22T08:25:42.524Z,151456.28
2018-07-22T08:28:14.524Z,151237.88
2018-07-22T08:30:46.125Z,151244.19
2018-07-22T08:33:17.027Z,151172.61
2018-07-22T08:35:50.231Z,151142.50
2018-07-22T08:38:21.457Z,151128.72
2018-07-22T08:40:53.474Z,151045.88
2018-07-22T08:43:24.615Z,151022.08
2018-07-22T08:45:56.383Z,151012.06
2018-07-22T08:48:29.238Z,151039.63
2018-07-22T08:51:01.212Z,151025.84
2018-07-22T08:53:33.210Z,151013.31
2018-07-22T08:56:06.235Z,151000.73
2018-07-22T08:58:37.487Z,151000.73
2018-07-22T09:01:08.944Z,151045.88
2018-07-22T09:03:43.802Z,151020.83
2018-07-22T09:06:15.568Z,151007.05
2018-07-22T09:08:46.497Z,151023.33
2018-07-22T09:11:18.572Z,151025.84
2018-07-22T09:13:49.793Z,151055.95
2018-07-22T09:16:22.008Z,151102.41
2018-07-22T09:18:53.095Z,151124.95
2018-07-22T09:21:24.905Z,151151.31
2018-07-22T09:23:55.681Z,151136.22
2018-07-22T09:26:27.528Z,151168.84
2018-07-22T09:28:58.592Z,151172.61
2018-07-22T09:31:29.465Z,151167.59
2018-07-22T09:34:02.856Z,151203.98
2018-07-22T09:36:34.199Z,151206.50
2018-07-22T09:39:08.075Z,151171.36
2018-07-22T09:41:40.572Z,151206.50
2018-07-22T09:44:11.757Z,151183.89
2018-07-22T09:46:42.745Z,151153.81
2018-07-22T09:49:13.816Z,151181.39
2018-07-22T09:51:46.206Z,151132.47
2018-07-22T09:54:17.060Z,151211.50
2018-07-22T09:56:48.506Z,151153.81
2018-07-22T09:59:20.622Z,151106.16
2018-07-22T10:01:51.653Z,151109.92
2018-07-22T10:04:22.687Z,151111.17
2018-07-22T10:06:55.063Z,151096.09
2018-07-22T10:09:26.266Z,151084.77
2018-07-22T10:11:57.498Z,151103.66
2018-07-22T10:14:28.968Z,151103.66
2018-07-22T10:16:59.887Z,151088.56
2018-07-22T10:19:30.872Z,151079.75
2018-07-22T10:22:02.688Z,151083.52
2018-07-22T10:24:33.925Z,151064.72
2018-07-22T10:27:06.230Z,151108.66
2018-07-22T10:29:37.198Z,151086.06
2018-07-22T10:32:08.613Z,151062.22
2018-07-22T10:34:39.830Z,151030.84
2018-07-22T10:37:11.570Z,151045.88
2018-07-22T10:39:42.413Z,151084.77
2018-07-22T10:42:13.524Z,151053.44
2018-07-22T10:44:44.655Z,151084.77
2018-07-22T10:47:16.652Z,151131.22
2018-07-22T10:49:49.297Z,151122.44
2018-07-22T10:52:21.552Z,151150.06
2018-07-22T10:54:53.220Z,151087.31
2018-07-22T10:57:24.564Z,151102.41
2018-07-22T10:59:55.732Z,151067.22
2018-07-22T11:02:28.813Z,151127.45
2018-07-22T11:04:59.824Z,151116.19
2018-07-22T11:07:31.153Z,151111.17
2018-07-22T11:10:02.619Z,151152.56
2018-07-22T11:12:34.835Z,151113.67
2018-07-22T11:15:06.918Z,151116.19
2018-07-22T11:17:38.064Z,151108.66
2018-07-22T11:20:09.226Z,151087.31
2018-07-22T11:22:42.161Z,151025.84
2018-07-22T11:25:13.249Z,150988.22
2018-07-22T11:27:44.348Z,150991.97
2018-07-22T11:30:15.375Z,150976.94
2018-07-22T11:32:46.723Z,150999.48
2018-07-22T11:35:18.529Z,151027.09
2018-07-22T11:37:49.500Z,151000.73
2018-07-22T11:40:20.595Z,151015.81
2018-07-22T11:42:52.575Z,151010.81
2018-07-22T11:45:23.712Z,151004.55
2018-07-22T11:47:56.098Z,151024.59
2018-07-22T11:50:30.991Z,150986.97
2018-07-22T11:53:02.548Z,150983.20
2018-07-22T11:55:33.814Z,150998.23
2018-07-22T11:58:04.943Z,151044.63
2018-07-22T12:00:37.370Z,151055.95
2018-07-22T12:03:08.808Z,151020.83
2018-07-22T12:05:40.196Z,150994.47
2018-07-22T12:08:12.494Z,150960.66
2018-07-22T12:10:44.540Z,150971.94
2018-07-22T12:13:16.795Z,150965.67
2018-07-22T12:15:47.982Z,150995.73
2018-07-22T12:18:18.916Z,151033.36
2018-07-22T12:20:49.954Z,151004.55
2018-07-22T12:23:21.682Z,151002.03
2018-07-22T12:25:52.978Z,150944.33
2018-07-22T12:28:24.026Z,150930.50
2018-07-22T12:30:54.916Z,150817.72
2018-07-22T12:33:25.985Z,150845.27
2018-07-22T12:35:58.376Z,150831.50
2018-07-22T12:38:30.936Z,150821.47
2018-07-22T12:41:01.926Z,150882.88
2018-07-22T12:43:32.962Z,150890.39
2018-07-22T12:46:04.383Z,150872.86
2018-07-22T12:48:35.924Z,150857.78
2018-07-22T12:51:07.112Z,150876.61
2018-07-22T12:53:41.787Z,150872.86
2018-07-22T12:56:17.236Z,150842.75
2018-07-22T12:58:48.937Z,150749.97
2018-07-22T13:01:19.959Z,150792.59
2018-07-22T13:03:51.206Z,150777.56
2018-07-22T13:06:23.718Z,150754.98
2018-07-22T13:08:54.827Z,150751.22
2018-07-22T13:11:26.276Z,150773.81
2018-07-22T13:13:59.303Z,150771.31
2018-07-22T13:16:30.924Z,150777.56
2018-07-22T13:19:01.886Z,150832.75
2018-07-22T13:24:32.888Z,150847.77
2018-07-22T13:27:04.251Z,150847.77
2018-07-22T13:29:36.019Z,150831.50
2018-07-22T13:32:07.390Z,150825.23
2018-07-22T13:34:38.715Z,150846.52
2018-07-22T13:37:10.188Z,150805.16
2018-07-22T13:39:41.314Z,150845.27
2018-07-22T13:42:12.886Z,150839.00
2018-07-22T13:44:43.992Z,150825.23
2018-07-22T13:47:15.120Z,150810.16
2018-07-22T13:49:46.458Z,150797.64
2018-07-22T13:52:17.977Z,150777.56
2018-07-22T13:54:52.043Z,150778.81
2018-07-22T13:57:23.268Z,150790.08
2018-07-22T13:59:55.180Z,150803.91
2018-07-22T14:02:26.947Z,150836.50
2018-07-22T14:04:57.940Z,150855.28
2018-07-22T14:07:29.331Z,150856.53
2018-07-22T14:10:00.462Z,150886.63
2018-07-22T14:12:32.935Z,150914.22
2018-07-22T14:15:05.865Z,150926.75
2018-07-22T14:17:36.532Z,150983.20
2018-07-22T14:20:08.198Z,150985.70
2018-07-22T14:22:38.723Z,150983.20
2018-07-22T14:25:09.589Z,150931.75
2018-07-22T14:27:40.606Z,150955.66
2018-07-22T14:30:11.981Z,150969.44
2018-07-22T14:32:43.429Z,150950.59
2018-07-22T14:35:14.650Z,150945.59
2018-07-22T14:37:45.889Z,150916.73
2018-07-22T14:40:17.102Z,150909.22
2018-07-22T14:42:49.246Z,150844.02
2018-07-22T14:45:20.412Z,150842.75
2018-07-22T14:47:51.669Z,150847.77
2018-07-22T14:50:23.900Z,150806.41
2018-07-22T14:52:55.092Z,150803.91
2018-07-22T14:55:27.017Z,150855.28
2018-07-22T14:57:58.271Z,150825.23
2018-07-22T15:00:30.398Z,150795.14
2018-07-22T15:03:01.688Z,150711.13
2018-07-22T15:05:33.629Z,150668.53
2018-07-22T15:08:05.122Z,150674.83
2018-07-22T15:10:36.947Z,150726.19
2018-07-22T15:13:07.980Z,150722.44
2018-07-22T15:15:39.741Z,150726.19
2018-07-22T15:18:11.811Z,150708.63
2018-07-22T15:20:43.186Z,150716.13
2018-07-22T15:23:14.177Z,150731.20
2018-07-22T15:25:45.469Z,150763.80
2018-07-22T15:28:17.229Z,150763.80
2018-07-22T15:30:48.270Z,150756.23
2018-07-22T15:33:20.328Z,150749.97
2018-07-22T15:35:51.698Z,150754.98
2018-07-22T15:38:22.789Z,150724.94
2018-07-22T15:40:53.921Z,150694.86
2018-07-22T15:43:25.028Z,150698.61
2018-07-22T15:45:56.431Z,150698.61
2018-07-22T15:48:29.061Z,150724.94
2018-07-22T15:51:00.505Z,150714.87
2018-07-22T15:53:31.652Z,150693.59
2018-07-22T15:56:03.693Z,150644.70
2018-07-22T15:58:36.648Z,150612.11
2018-07-22T16:01:08.457Z,150612.11
2018-07-22T16:03:39.198Z,150569.53
2018-07-22T16:06:10.539Z,150569.53
2018-07-22T16:08:41.634Z,150593.34
2018-07-22T16:11:13.482Z,150623.42
2018-07-22T16:13:44.589Z,150605.86
2018-07-22T16:16:15.807Z,150614.62
2018-07-22T16:18:46.989Z,150622.17
2018-07-22T16:21:18.573Z,150614.62
2018-07-22T16:23:51.465Z,150589.59
2018-07-22T16:26:23.410Z,150597.09
2018-07-22T16:28:55.108Z,150602.09
2018-07-22T16:31:27.544Z,150593.34
2018-07-22T16:33:58.889Z,150577.08
2018-07-22T16:36:30.937Z,150569.53
2018-07-22T16:39:03.039Z,150534.50
2018-07-22T16:41:34.050Z,150473.05
2018-07-22T16:44:06.113Z,150456.78
2018-07-22T16:46:38.380Z,150386.70
2018-07-22T16:49:13.859Z,150342.88
2018-07-22T16:51:46.696Z,150347.89
2018-07-22T16:54:17.881Z,150322.78
2018-07-22T16:56:50.163Z,150331.53
2018-07-22T16:59:21.568Z,150278.97
2018-07-22T17:01:54.780Z,150294.02
2018-07-22T17:04:26.167Z,150315.28
2018-07-22T17:07:00.504Z,150325.28
2018-07-22T17:09:31.833Z,150294.02
2018-07-22T17:12:04.765Z,150299.03
2018-07-22T17:14:36.130Z,150171.31
2018-07-22T17:17:08.104Z,150101.28
2018-07-22T17:19:39.948Z,150076.23
2018-07-22T17:22:13.258Z,150116.28
2018-07-22T17:24:45.032Z,150096.23
2018-07-22T17:27:18.018Z,149986.13
2018-07-22T17:29:49.222Z,149937.38
2018-07-22T17:32:21.096Z,149859.83
2018-07-22T17:34:52.142Z,149464.86
2018-07-22T17:37:23.142Z,149051.63
2018-07-22T17:39:58.508Z,148832.12
2018-07-22T17:42:32.618Z,148675.00
2018-07-22T17:45:03.576Z,148587.83
2018-07-22T17:47:35.190Z,148549.20
2018-07-22T17:50:11.073Z,148590.31
2018-07-22T17:52:42.313Z,148642.64
2018-07-22T17:55:13.574Z,148706.17
2018-07-22T17:57:44.627Z,148709.91
2018-07-22T18:00:16.407Z,148714.89
2018-07-22T18:02:50.636Z,148737.39
2018-07-22T18:05:21.724Z,148738.64
2018-07-22T18:07:56.348Z,148753.58
2018-07-22T18:10:27.828Z,148779.78
2018-07-22T18:12:59.948Z,148822.16
2018-07-22T18:15:33.264Z,148850.81
2018-07-22T18:18:05.216Z,148883.25
2018-07-22T18:20:36.416Z,148906.91
2018-07-22T18:23:08.597Z,148906.91
2018-07-22T18:25:40.573Z,148934.41
2018-07-22T18:28:13.155Z,148940.64
2018-07-22T18:30:46.869Z,148949.36
2018-07-22T18:33:17.933Z,148920.66
2018-07-22T18:35:49.445Z,148877.02
2018-07-22T18:38:23.091Z,148870.78
2018-07-22T18:40:54.888Z,148890.72
2018-07-22T18:43:26.406Z,148889.47
2018-07-22T18:45:57.735Z,148872.03
2018-07-22T18:48:29.271Z,148874.52
2018-07-22T18:51:00.925Z,148899.44
2018-07-22T18:53:32.185Z,148929.42
2018-07-22T18:56:03.689Z,148938.14
2018-07-22T18:58:34.862Z,148969.34
2018-07-22T19:01:06.061Z,149005.47
2018-07-22T19:03:37.562Z,149044.14
2018-07-22T19:06:10.123Z,149044.14
2018-07-22T19:08:41.736Z,149061.64
2018-07-22T19:11:14.125Z,149102.77
2018-07-22T19:13:47.178Z,149152.77
2018-07-22T19:16:21.266Z,149140.25
2018-07-22T19:18:55.166Z,149163.98
2018-07-22T19:21:26.956Z,149173.95
2018-07-22T19:23:58.600Z,149196.39
2018-07-22T19:26:31.226Z,149218.88
2018-07-22T19:29:02.581Z,149237.59
2018-07-22T19:31:34.155Z,149286.25
2018-07-22T19:34:07.416Z,149311.30
2018-07-22T19:36:40.035Z,149320.03
2018-07-22T19:39:12.486Z,149310.05
2018-07-22T19:41:45.000Z,149253.84
2018-07-22T19:44:16.436Z,149233.84
2018-07-22T19:46:47.819Z,149181.44
2018-07-22T19:49:19.421Z,149176.45
2018-07-22T19:51:50.866Z,149166.47
2018-07-22T19:54:22.333Z,149132.78
2018-07-22T19:56:54.740Z,149086.56
2018-07-22T19:59:26.068Z,149061.64
2018-07-22T20:01:57.265Z,149045.39
2018-07-22T20:04:28.743Z,149024.20
2018-07-22T20:07:00.488Z,149026.69
2018-07-22T20:09:32.290Z,149005.47
2018-07-22T20:12:04.983Z,148975.56
2018-07-22T20:14:37.250Z,148949.36
2018-07-22T20:17:09.501Z,148919.41
2018-07-22T20:19:41.448Z,148943.13
2018-07-22T20:22:13.455Z,148938.14
2018-07-22T20:24:45.005Z,148945.63
2018-07-22T20:27:16.189Z,148961.86
2018-07-22T20:29:48.450Z,148946.86
2018-07-22T20:32:20.773Z,148938.14
2018-07-22T20:34:51.516Z,148948.11
2018-07-22T20:37:22.690Z,148908.16
2018-07-22T20:39:55.573Z,148910.64
2018-07-22T20:42:26.734Z,148936.89
2018-07-22T20:44:58.807Z,148948.11
2018-07-22T20:47:31.227Z,148949.36
2018-07-22T20:50:05.298Z,148904.42
2018-07-22T20:52:39.590Z,148934.41
2018-07-22T20:55:12.850Z,148926.94
2018-07-22T20:57:46.854Z,148863.27
2018-07-22T21:00:19.415Z,148879.50
2018-07-22T21:02:51.592Z,148891.95
2018-07-22T21:05:23.508Z,148869.53
2018-07-22T21:07:55.082Z,148872.03
2018-07-22T21:10:26.209Z,148864.50
2018-07-22T21:13:08.961Z,148877.02
2018-07-22T21:15:40.619Z,148859.53
2018-07-22T21:18:11.747Z,148848.31
2018-07-22T21:20:43.212Z,148848.31
2018-07-22T21:23:14.720Z,148834.63
2018-07-22T21:25:46.519Z,148833.38
2018-07-22T21:28:18.839Z,148799.70
2018-07-22T21:30:50.285Z,148809.66
2018-07-22T21:33:22.584Z,148774.80
2018-07-22T21:35:54.372Z,148774.80
2018-07-22T21:38:27.044Z,148802.19
2018-07-22T21:40:58.233Z,148829.63
2018-07-22T21:43:30.711Z,148844.58
2018-07-22T21:46:02.330Z,148860.77
2018-07-22T21:48:33.589Z,148872.03
2018-07-22T21:51:04.696Z,148847.06
2018-07-22T21:53:35.869Z,148873.28
2018-07-22T21:56:07.225Z,148890.72
2018-07-22T21:58:38.598Z,148908.16
2018-07-22T22:01:12.510Z,148910.64
2018-07-22T22:03:44.498Z,148929.42
2018-07-22T22:06:15.905Z,148914.42
2018-07-22T22:08:47.108Z,148911.89
2018-07-22T22:11:18.594Z,148891.95
2018-07-22T22:13:49.767Z,148906.91
2018-07-22T22:16:20.926Z,148891.95
2018-07-22T22:18:53.557Z,148894.44
2018-07-22T22:21:25.630Z,148888.22
2018-07-22T22:23:56.778Z,148875.77
2018-07-22T22:26:28.547Z,148845.83
2018-07-22T22:28:59.951Z,148828.39
2018-07-22T22:31:31.149Z,148824.66
2018-07-22T22:34:02.619Z,148837.11
2018-07-22T22:36:34.098Z,148812.16
2018-07-22T22:39:07.525Z,148769.77
2018-07-22T22:41:38.557Z,148734.91
2018-07-22T22:44:09.850Z,148697.47
2018-07-22T22:46:42.427Z,148718.67
2018-07-22T22:49:13.507Z,148697.47
2018-07-22T22:51:44.448Z,148692.48
2018-07-22T22:54:16.110Z,148685.00
2018-07-22T22:56:47.359Z,148670.03
2018-07-22T22:59:22.025Z,148681.28
2018-07-22T23:01:55.467Z,148692.48
2018-07-22T23:04:26.731Z,148693.72
2018-07-22T23:06:57.903Z,148698.70
2018-07-22T23:09:29.117Z,148706.17
2018-07-22T23:12:00.353Z,148731.17
2018-07-22T23:14:31.525Z,148759.81
2018-07-22T23:17:04.512Z,148813.41
2018-07-22T23:19:35.623Z,148843.34
2018-07-22T23:22:06.648Z,148869.53
2018-07-22T23:24:37.883Z,148901.92
2018-07-22T23:27:10.256Z,148910.64
2018-07-22T23:29:41.323Z,148909.41
2018-07-22T23:32:13.242Z,148898.19
2018-07-22T23:34:44.377Z,148880.75
2018-07-22T23:37:15.383Z,148875.77
2018-07-22T23:39:46.732Z,148896.94
2018-07-22T23:42:17.638Z,148914.42
2018-07-22T23:44:49.056Z,148923.19
2018-07-22T23:47:21.992Z,148946.86
2018-07-22T23:49:53.474Z,148978.06
2018-07-22T23:52:25.336Z,148993.00
2018-07-22T23:54:56.521Z,148996.75
2018-07-22T23:57:27.927Z,149021.72
